createdAt,value
2018-06-13T00:01:29.424Z,23.03
2018-06-13T00:03:58.196Z,30.03
2018-06-13T00:06:27.000Z,24.13
2018-06-13T00:08:55.804Z,27.80
2018-06-13T00:11:24.581Z,26.70
2018-06-13T00:13:53.374Z,28.10
2018-06-13T00:16:22.308Z,27.77
2018-06-13T00:18:51.137Z,26.27
2018-06-13T00:21:19.908Z,26.13
2018-06-13T00:23:48.672Z,26.93
2018-06-13T00:26:17.438Z,24.90
2018-06-13T00:28:46.230Z,26.87
2018-06-13T00:31:15.012Z,22.47
2018-06-13T00:33:43.802Z,28.33
2018-06-13T00:36:12.598Z,22.73
2018-06-13T00:38:41.425Z,26.63
2018-06-13T00:41:10.255Z,24.90
2018-06-13T00:43:39.071Z,26.67
2018-06-13T00:46:07.831Z,27.50
2018-06-13T00:48:36.597Z,23.83
2018-06-13T00:51:05.425Z,24.20
2018-06-13T00:53:34.217Z,25.93
2018-06-13T00:56:13.762Z,27.20
2018-06-13T00:58:42.607Z,26.30
2018-06-13T01:01:11.536Z,29.47
2018-06-13T01:03:40.388Z,25.00
2018-06-13T01:06:09.209Z,26.70
2018-06-13T01:08:37.967Z,29.33
2018-06-13T01:11:06.713Z,25.50
2018-06-13T01:13:35.529Z,29.80
2018-06-13T01:16:04.298Z,27.87
2018-06-13T01:18:33.083Z,24.97
2018-06-13T01:21:01.955Z,29.60
2018-06-13T01:23:30.731Z,26.97
2018-06-13T01:25:59.524Z,25.53
2018-06-13T01:28:28.798Z,30.60
2018-06-13T01:30:57.563Z,28.80
2018-06-13T01:33:26.394Z,27.50
2018-06-13T01:35:55.189Z,28.20
2018-06-13T01:38:23.930Z,27.53
2018-06-13T01:40:52.700Z,27.00
2018-06-13T01:43:21.491Z,26.20
2018-06-13T01:45:50.379Z,28.80
2018-06-13T01:48:19.133Z,31.13
2018-06-13T01:50:55.458Z,28.07
2018-06-13T01:53:24.585Z,26.67
2018-06-13T01:55:53.405Z,30.20
2018-06-13T01:58:22.172Z,27.30
2018-06-13T02:00:50.971Z,28.47
2018-06-13T02:03:19.755Z,30.07
2018-06-13T02:05:48.612Z,32.53
2018-06-13T02:08:17.436Z,30.63
2018-06-13T02:10:46.187Z,32.03
2018-06-13T02:13:14.926Z,29.83
2018-06-13T02:15:43.772Z,26.87
2018-06-13T02:18:12.559Z,30.03
2018-06-13T02:20:41.313Z,30.33
2018-06-13T02:23:10.143Z,28.00
2018-06-13T02:25:39.051Z,29.23
2018-06-13T02:28:07.911Z,27.57
2018-06-13T02:30:36.683Z,29.57
2018-06-13T02:33:05.514Z,27.07
2018-06-13T02:35:34.260Z,26.33
2018-06-13T02:38:03.035Z,27.33
2018-06-13T02:40:31.987Z,31.40
2018-06-13T02:43:00.744Z,31.97
2018-06-13T02:45:29.534Z,31.00
2018-06-13T02:47:58.330Z,31.60
2018-06-13T02:50:27.218Z,33.33
2018-06-13T02:52:55.985Z,26.93
2018-06-13T02:55:24.748Z,31.53
2018-06-13T02:57:53.621Z,27.37
2018-06-13T03:00:22.383Z,30.50
2018-06-13T03:02:51.168Z,28.50
2018-06-13T03:05:19.951Z,30.47
2018-06-13T03:07:48.741Z,25.57
2018-06-13T03:10:17.634Z,34.63
2018-06-13T03:12:46.522Z,27.07
2018-06-13T03:15:15.289Z,29.63
2018-06-13T03:17:44.073Z,27.27
2018-06-13T03:20:12.967Z,30.23
2018-06-13T03:22:41.741Z,24.33
2018-06-13T03:25:10.569Z,24.40
2018-06-13T03:27:39.357Z,25.00
2018-06-13T03:30:08.191Z,24.13
2018-06-13T03:32:37.011Z,24.97
2018-06-13T03:35:05.879Z,21.70
2018-06-13T03:37:34.669Z,19.53
2018-06-13T03:40:03.520Z,29.53
2018-06-13T03:42:32.334Z,21.83
2018-06-13T03:45:01.116Z,26.10
2018-06-13T03:47:29.920Z,18.63
2018-06-13T03:49:58.669Z,20.37
2018-06-13T03:52:27.577Z,18.83
2018-06-13T03:54:56.457Z,23.40
2018-06-13T03:57:25.387Z,20.77
2018-06-13T03:59:54.156Z,20.40
2018-06-13T04:02:22.976Z,21.53
2018-06-13T04:04:51.752Z,20.57
2018-06-13T04:07:20.532Z,25.03
2018-06-13T04:09:49.337Z,16.80
2018-06-13T04:12:18.132Z,24.27
2018-06-13T04:14:46.991Z,23.03
2018-06-13T04:17:15.821Z,25.23
2018-06-13T04:19:44.684Z,21.43
2018-06-13T04:22:13.446Z,25.88
2018-06-13T04:24:42.204Z,19.00
2018-06-13T04:27:10.980Z,21.33
2018-06-13T04:29:39.798Z,24.25
2018-06-13T04:32:08.665Z,21.97
2018-06-13T04:34:37.426Z,21.48
2018-06-13T04:37:06.223Z,22.07
2018-06-13T04:39:35.023Z,22.48
2018-06-13T04:42:04.296Z,18.27
2018-06-13T04:44:33.077Z,25.68
2018-06-13T04:47:01.852Z,27.17
2018-06-13T04:49:30.639Z,32.45
2018-06-13T04:51:59.502Z,25.23
2018-06-13T04:54:28.271Z,20.97
2018-06-13T04:56:57.044Z,20.70
2018-06-13T04:59:25.811Z,23.65
2018-06-13T05:01:54.582Z,23.98
2018-06-13T05:04:23.394Z,23.45
2018-06-13T05:06:52.177Z,25.08
2018-06-13T05:09:20.953Z,23.70
2018-06-13T05:11:49.725Z,22.45
2018-06-13T05:14:18.544Z,21.87
2018-06-13T05:16:47.373Z,24.37
2018-06-13T05:19:16.380Z,18.75
2018-06-13T05:21:45.167Z,20.62
2018-06-13T05:24:13.937Z,22.25
2018-06-13T05:26:42.825Z,29.45
2018-06-13T05:29:11.683Z,22.98
2018-06-13T05:31:40.471Z,23.40
2018-06-13T05:34:09.291Z,19.32
2018-06-13T05:36:38.119Z,28.23
2018-06-13T05:39:08.322Z,26.10
2018-06-13T05:41:37.126Z,19.45
2018-06-13T05:44:05.926Z,29.05
2018-06-13T05:46:34.704Z,27.30
2018-06-13T05:49:03.552Z,27.43
2018-06-13T05:51:32.307Z,24.13
2018-06-13T05:54:01.082Z,28.33
2018-06-13T05:56:29.875Z,22.17
2018-06-13T05:58:58.668Z,31.77
2018-06-13T06:01:27.578Z,26.20
2018-06-13T06:03:56.405Z,27.63
2018-06-13T06:06:25.242Z,34.00
2018-06-13T06:08:54.014Z,30.10
2018-06-13T06:11:22.967Z,38.60
2018-06-13T06:13:51.796Z,35.97
2018-06-13T06:16:20.587Z,33.23
2018-06-13T06:18:49.428Z,45.70
2018-06-13T06:21:18.214Z,37.07
2018-06-13T06:23:46.973Z,38.90
2018-06-13T06:26:15.734Z,30.73
2018-06-13T06:28:44.513Z,30.43
2018-06-13T06:31:13.294Z,34.17
2018-06-13T06:33:42.108Z,35.53
2018-06-13T06:36:10.896Z,37.63
2018-06-13T06:38:39.664Z,29.67
2018-06-13T06:41:08.462Z,30.37
2018-06-13T06:43:37.282Z,36.07
2018-06-13T06:46:06.064Z,30.67
2018-06-13T06:48:34.831Z,34.20
2018-06-13T06:51:03.588Z,32.43
2018-06-13T06:53:32.476Z,33.40
2018-06-13T06:56:01.273Z,30.27
2018-06-13T06:58:30.085Z,36.80
2018-06-13T07:00:58.887Z,36.40
2018-06-13T07:03:27.627Z,31.87
2018-06-13T07:05:56.403Z,31.77
2018-06-13T07:08:25.155Z,35.27
2018-06-13T07:10:53.968Z,34.83
2018-06-13T07:13:22.736Z,63.17
2018-06-13T07:15:51.527Z,36.90
2018-06-13T07:18:20.405Z,34.50
2018-06-13T07:20:49.172Z,38.40
2018-06-13T07:23:17.991Z,35.67
2018-06-13T07:25:46.876Z,41.33
2018-06-13T07:28:16.343Z,41.07
2018-06-13T07:30:45.122Z,34.07
2018-06-13T07:33:13.861Z,35.50
2018-06-13T07:35:42.657Z,39.27
2018-06-13T07:38:11.458Z,34.30
2018-06-13T07:40:40.367Z,31.30
2018-06-13T07:43:09.164Z,31.83
2018-06-13T07:45:37.951Z,35.23
2018-06-13T07:48:06.833Z,31.47
2018-06-13T07:50:35.636Z,29.93
2018-06-13T07:53:04.479Z,37.33
2018-06-13T07:55:33.281Z,32.03
2018-06-13T07:58:02.157Z,33.97
2018-06-13T08:00:30.931Z,41.60
2018-06-13T08:02:59.768Z,38.97
2018-06-13T08:05:28.570Z,31.60
2018-06-13T08:07:57.388Z,30.97
2018-06-13T08:10:26.255Z,32.87
2018-06-13T08:12:55.061Z,36.93
2018-06-13T08:15:23.914Z,33.27
2018-06-13T08:17:52.750Z,31.43
2018-06-13T08:20:21.571Z,33.57
2018-06-13T08:22:51.408Z,31.37
2018-06-13T08:25:20.335Z,38.43
2018-06-13T08:27:49.892Z,30.53
2018-06-13T08:30:18.736Z,28.67
2018-06-13T08:32:47.543Z,35.10
2018-06-13T08:35:16.372Z,32.73
2018-06-13T08:37:45.204Z,31.87
2018-06-13T08:40:14.056Z,33.40
2018-06-13T08:42:42.853Z,29.03
2018-06-13T08:45:11.837Z,32.37
2018-06-13T08:47:40.742Z,34.93
2018-06-13T08:50:09.627Z,30.03
2018-06-13T08:52:38.437Z,28.53
2018-06-13T08:55:07.381Z,33.13
2018-06-13T08:57:36.163Z,31.83
2018-06-13T09:00:05.561Z,33.80
2018-06-13T09:02:34.400Z,26.20
2018-06-13T09:05:03.299Z,33.50
2018-06-13T09:07:32.105Z,30.83
2018-06-13T09:10:00.990Z,35.80
2018-06-13T09:12:29.899Z,37.20
2018-06-13T09:14:58.744Z,30.17
2018-06-13T09:17:27.523Z,36.37
2018-06-13T09:19:56.313Z,27.67
2018-06-13T09:22:25.120Z,24.83
2018-06-13T09:24:53.960Z,28.47
2018-06-13T09:27:22.768Z,28.63
2018-06-13T09:29:51.568Z,28.40
2018-06-13T09:32:20.409Z,27.77
2018-06-13T09:34:49.194Z,31.93
2018-06-13T09:37:17.995Z,28.30
2018-06-13T09:39:46.885Z,34.20
2018-06-13T09:42:15.700Z,30.03
2018-06-13T09:44:44.592Z,31.70
2018-06-13T09:47:15.133Z,38.10
2018-06-13T09:49:42.285Z,34.63
2018-06-13T09:52:11.117Z,39.30
2018-06-13T09:54:40.006Z,42.67
2018-06-13T09:57:08.837Z,36.27
2018-06-13T09:59:42.713Z,34.47
2018-06-13T10:02:18.912Z,32.13
2018-06-13T10:04:48.442Z,41.20
2018-06-13T10:07:17.247Z,32.33
2018-06-13T10:09:46.065Z,34.77
2018-06-13T10:12:14.881Z,33.30
2018-06-13T10:14:43.853Z,36.67
2018-06-13T10:17:12.750Z,37.33
2018-06-13T10:19:41.556Z,30.07
2018-06-13T10:22:10.415Z,27.23
2018-06-13T10:24:39.219Z,27.90
2018-06-13T10:27:13.107Z,32.33
2018-06-13T10:29:41.937Z,30.80
2018-06-13T10:32:10.759Z,28.80
2018-06-13T10:34:39.567Z,32.00
2018-06-13T10:37:08.484Z,27.33
2018-06-13T10:39:37.273Z,30.50
2018-06-13T10:42:06.480Z,29.83
2018-06-13T10:44:35.301Z,28.37
2018-06-13T10:47:04.166Z,25.70
2018-06-13T10:49:33.068Z,32.30
2018-06-13T10:52:01.884Z,31.07
2018-06-13T10:54:30.701Z,27.37
2018-06-13T10:56:59.550Z,25.73
2018-06-13T10:59:28.434Z,26.70
2018-06-13T11:03:26.577Z,32.83
2018-06-13T11:05:55.356Z,31.37
2018-06-13T11:08:25.180Z,22.37
2018-06-13T11:10:53.989Z,20.97
2018-06-13T11:13:22.828Z,24.10
2018-06-13T11:15:51.609Z,26.07
2018-06-13T11:18:20.424Z,21.67
2018-06-13T11:20:49.338Z,22.83
2018-06-13T11:23:18.151Z,20.77
2018-06-13T11:25:46.968Z,27.00
2018-06-13T11:28:15.752Z,22.37
2018-06-13T11:30:44.619Z,21.87
2018-06-13T11:33:13.854Z,21.73
2018-06-13T11:35:42.646Z,29.27
2018-06-13T11:38:11.416Z,24.27
2018-06-13T11:40:40.259Z,22.57
2018-06-13T11:43:10.530Z,21.00
2018-06-13T11:45:39.425Z,30.27
2018-06-13T11:48:08.461Z,24.37
2018-06-13T11:50:37.391Z,21.27
2018-06-13T11:53:06.188Z,23.03
2018-06-13T11:55:35.224Z,18.77
2018-06-13T11:58:04.034Z,17.40
2018-06-13T12:00:32.880Z,22.20
2018-06-13T12:03:01.827Z,17.90
2018-06-13T12:05:31.921Z,20.63
2018-06-13T12:08:00.741Z,17.20
2018-06-13T12:10:29.529Z,19.50
2018-06-13T12:12:58.406Z,15.90
2018-06-13T12:15:27.249Z,19.03
2018-06-13T12:17:56.097Z,17.20
2018-06-13T12:20:24.972Z,16.13
2018-06-13T12:22:53.861Z,28.23
2018-06-13T12:25:22.645Z,23.53
2018-06-13T12:27:51.592Z,22.07
2018-06-13T12:30:20.390Z,23.37
2018-06-13T12:32:49.199Z,22.77
2018-06-13T12:35:18.074Z,19.43
2018-06-13T12:37:46.873Z,20.63
2018-06-13T12:40:15.715Z,30.33
2018-06-13T12:42:44.517Z,19.30
2018-06-13T12:45:13.331Z,18.07
2018-06-13T12:47:42.145Z,23.17
2018-06-13T12:50:11.040Z,15.13
2018-06-13T12:52:39.875Z,17.57
2018-06-13T12:55:08.720Z,11.00
2018-06-13T12:57:37.528Z,9.27
2018-06-13T13:00:06.812Z,9.57
2018-06-13T13:02:35.610Z,11.97
2018-06-13T13:05:04.461Z,8.13
2018-06-13T13:07:33.377Z,8.50
2018-06-13T13:10:02.185Z,8.17
2018-06-13T13:12:31.040Z,12.33
2018-06-13T13:14:59.928Z,12.07
2018-06-13T13:17:28.858Z,10.57
2018-06-13T13:19:57.666Z,8.87
2018-06-13T13:22:26.473Z,9.90
2018-06-13T13:24:55.328Z,10.63
2018-06-13T13:27:24.168Z,10.97
2018-06-13T13:29:53.171Z,11.37
2018-06-13T13:32:21.971Z,9.63
2018-06-13T13:34:50.888Z,13.03
2018-06-13T13:37:19.749Z,14.40
2018-06-13T13:39:48.596Z,15.87
2018-06-13T13:42:17.440Z,11.23
2018-06-13T13:44:46.263Z,16.43
2018-06-13T13:47:15.099Z,9.57
2018-06-13T13:49:43.908Z,10.33
2018-06-13T13:52:12.700Z,12.43
2018-06-13T13:54:41.489Z,7.60
2018-06-13T13:57:10.409Z,9.83
2018-06-13T13:59:39.401Z,12.57
2018-06-13T14:02:08.206Z,12.73
2018-06-13T14:04:37.032Z,16.00
2018-06-13T14:07:05.918Z,7.93
2018-06-13T14:09:34.714Z,10.70
2018-06-13T14:12:03.710Z,10.70
2018-06-13T14:14:32.555Z,16.50
2018-06-13T14:17:01.373Z,13.47
2018-06-13T14:19:30.239Z,18.67
2018-06-13T14:21:59.076Z,18.63
2018-06-13T14:24:27.931Z,15.70
2018-06-13T14:26:56.729Z,14.47
2018-06-13T14:29:25.578Z,15.43
2018-06-13T14:31:54.505Z,14.20
2018-06-13T14:34:23.327Z,16.77
2018-06-13T14:36:52.149Z,18.17
2018-06-13T14:39:21.008Z,20.83
2018-06-13T14:41:49.900Z,21.43
2018-06-13T14:44:18.749Z,23.63
2018-06-13T14:46:47.602Z,20.10
2018-06-13T14:49:16.463Z,21.03
2018-06-13T14:51:47.658Z,20.73
2018-06-13T14:54:16.608Z,19.27
2018-06-13T14:56:45.485Z,23.20
2018-06-13T14:59:14.310Z,24.53
2018-06-13T15:01:43.136Z,20.97
2018-06-13T15:04:12.181Z,25.60
2018-06-13T15:06:41.046Z,24.30
2018-06-13T15:09:10.410Z,21.63
2018-06-13T15:11:40.046Z,25.83
2018-06-13T15:14:09.105Z,24.70
2018-06-13T15:16:38.242Z,26.53
2018-06-13T15:19:07.182Z,24.10
2018-06-13T15:21:36.038Z,25.57
2018-06-13T15:24:04.837Z,34.07
2018-06-13T15:26:33.838Z,33.33
2018-06-13T15:29:02.612Z,22.83
2018-06-13T15:31:31.469Z,23.17
2018-06-13T15:34:00.364Z,21.40
2018-06-13T15:36:29.406Z,26.57
2018-06-13T15:38:58.266Z,25.40
2018-06-13T15:41:27.114Z,23.83
2018-06-13T15:43:55.940Z,20.27
2018-06-13T15:46:24.777Z,30.57
2018-06-13T15:48:53.674Z,24.57
2018-06-13T15:51:22.471Z,27.00
2018-06-13T15:53:51.284Z,27.57
2018-06-13T15:56:20.150Z,24.77
2018-06-13T15:58:48.993Z,22.03
2018-06-13T16:01:17.817Z,28.47
2018-06-13T16:03:46.676Z,19.77
2018-06-13T16:06:15.604Z,27.13
2018-06-13T16:08:44.490Z,21.40
2018-06-13T16:11:13.442Z,22.43
2018-06-13T16:13:42.256Z,17.90
2018-06-13T16:16:11.089Z,16.20
2018-06-13T16:18:39.937Z,17.67
2018-06-13T16:21:08.739Z,22.93
2018-06-13T16:23:37.578Z,20.40
2018-06-13T16:26:06.460Z,13.57
2018-06-13T16:28:35.294Z,14.77
2018-06-13T16:31:04.147Z,11.50
2018-06-13T16:33:32.991Z,8.87
2018-06-13T16:36:01.834Z,11.87
2018-06-13T16:38:30.699Z,12.83
2018-06-13T16:40:59.536Z,13.40
2018-06-13T16:43:28.407Z,13.07
2018-06-13T16:45:57.210Z,16.60
2018-06-13T16:48:26.097Z,13.10
2018-06-13T16:51:07.638Z,8.13
2018-06-13T16:55:52.537Z,10.13
2018-06-13T16:58:21.434Z,11.30
2018-06-13T17:00:50.316Z,8.60
2018-06-13T17:03:19.292Z,11.73
2018-06-13T17:05:48.146Z,10.33
2018-06-13T17:08:17.053Z,16.57
2018-06-13T17:10:46.603Z,11.60
2018-06-13T17:13:15.431Z,19.33
2018-06-13T17:15:44.287Z,13.53
2018-06-13T17:18:13.112Z,11.33
2018-06-13T17:20:41.922Z,15.07
2018-06-13T17:23:10.831Z,17.07
2018-06-13T17:25:39.760Z,17.40
2018-06-13T17:28:08.597Z,15.23
2018-06-13T17:30:37.555Z,37.00
2018-06-13T17:33:06.703Z,14.90
2018-06-13T17:35:35.600Z,12.30
2018-06-13T17:38:04.537Z,11.07
2018-06-13T17:40:33.378Z,8.07
2018-06-13T17:43:02.237Z,9.73
2018-06-13T17:45:31.316Z,8.07
2018-06-13T17:48:00.209Z,7.77
2018-06-13T17:50:29.028Z,8.97
2018-06-13T17:52:57.888Z,13.20
2018-06-13T17:55:26.719Z,9.60
2018-06-13T17:57:55.561Z,10.63
2018-06-13T18:00:24.535Z,13.57
2018-06-13T18:02:53.505Z,17.87
2018-06-13T18:05:22.346Z,14.20
2018-06-13T18:07:51.230Z,12.83
2018-06-13T18:10:20.080Z,11.17
2018-06-13T18:12:48.904Z,17.77
2018-06-13T18:15:17.765Z,11.30
2018-06-13T18:17:46.623Z,12.57
2018-06-13T18:20:15.430Z,15.07
2018-06-13T18:22:44.371Z,19.57
2018-06-13T18:25:13.196Z,17.47
2018-06-13T18:27:42.077Z,8.20
2018-06-13T18:30:10.946Z,12.10
2018-06-13T18:32:39.822Z,10.27
2018-06-13T18:35:08.630Z,8.30
2018-06-13T18:37:37.494Z,14.00
2018-06-13T18:40:06.437Z,11.80
2018-06-13T18:42:35.268Z,11.13
2018-06-13T18:45:04.256Z,12.13
2018-06-13T18:47:33.098Z,13.60
2018-06-13T18:50:01.934Z,8.97
2018-06-13T18:52:30.791Z,7.03
2018-06-13T18:54:59.666Z,9.93
2018-06-13T18:57:28.537Z,10.80
2018-06-13T18:59:57.501Z,10.90
2018-06-13T19:02:26.451Z,7.03
2018-06-13T19:04:55.300Z,4.27
2018-06-13T19:07:24.285Z,8.70
2018-06-13T19:09:53.089Z,8.73
2018-06-13T19:12:21.968Z,10.43
2018-06-13T19:14:51.934Z,5.57
2018-06-13T19:17:20.796Z,8.33
2018-06-13T19:19:49.977Z,14.23
2018-06-13T19:22:18.894Z,9.07
2018-06-13T19:24:47.680Z,8.50
2018-06-13T19:27:17.243Z,9.40
2018-06-13T19:29:46.205Z,14.73
2018-06-13T19:32:15.037Z,15.13
2018-06-13T19:34:43.860Z,14.03
2018-06-13T19:37:12.759Z,9.37
2018-06-13T19:39:41.639Z,8.27
2018-06-13T19:42:10.443Z,6.90
2018-06-13T19:44:39.349Z,7.17
2018-06-13T19:47:13.313Z,9.87
2018-06-13T19:49:42.208Z,12.77
2018-06-13T19:52:12.091Z,7.57
2018-06-13T19:54:46.011Z,18.83
2018-06-13T19:57:14.905Z,11.77
2018-06-13T19:59:43.718Z,9.17
2018-06-13T20:03:47.035Z,7.97
2018-06-13T20:06:15.940Z,15.00
2018-06-13T20:08:44.738Z,9.83
2018-06-13T20:11:13.713Z,15.03
2018-06-13T20:13:47.648Z,10.97
2018-06-13T20:16:31.399Z,10.77
2018-06-13T20:19:05.221Z,10.60
2018-06-13T20:21:34.065Z,6.87
2018-06-13T20:24:02.890Z,10.60
2018-06-13T20:26:36.786Z,9.63
2018-06-13T20:29:11.274Z,7.77
2018-06-13T20:31:42.431Z,9.30
2018-06-13T20:34:11.349Z,10.27
2018-06-13T20:36:40.228Z,9.70
2018-06-13T20:39:10.279Z,10.30
2018-06-13T20:41:39.673Z,11.63
2018-06-13T20:44:08.808Z,12.17
2018-06-13T20:46:37.686Z,9.47
2018-06-13T20:49:06.613Z,15.33
2018-06-13T20:51:35.467Z,13.40
2018-06-13T20:54:04.405Z,14.60
2018-06-13T20:56:33.405Z,15.57
2018-06-13T20:59:02.271Z,15.80
2018-06-13T21:01:31.094Z,18.17
2018-06-13T21:03:59.902Z,19.67
2018-06-13T21:06:28.699Z,16.50
2018-06-13T21:08:57.526Z,18.17
2018-06-13T21:11:26.357Z,20.50
2018-06-13T21:13:55.197Z,16.70
2018-06-13T21:16:24.019Z,19.30
2018-06-13T21:18:52.946Z,20.27
2018-06-13T21:21:21.745Z,18.10
2018-06-13T21:23:50.575Z,17.73
2018-06-13T21:26:19.367Z,17.87
2018-06-13T21:28:48.190Z,18.07
2018-06-13T21:31:17.096Z,18.50
2018-06-13T21:33:45.959Z,14.53
2018-06-13T21:36:14.746Z,11.70
2018-06-13T21:38:43.536Z,11.70
2018-06-13T21:41:13.355Z,10.57
2018-06-13T21:43:42.181Z,5.87
2018-06-13T21:46:10.966Z,9.53
2018-06-13T21:48:39.748Z,11.60
2018-06-13T21:51:08.567Z,13.73
2018-06-13T21:53:37.395Z,8.97
2018-06-13T21:56:06.250Z,6.70
2018-06-13T21:58:35.064Z,17.70
2018-06-13T22:01:03.882Z,10.13
2018-06-13T22:03:32.763Z,12.17
2018-06-13T22:06:01.722Z,5.93
2018-06-13T22:08:30.663Z,4.43
2018-06-13T22:10:59.650Z,4.27
2018-06-13T22:13:28.625Z,5.83
2018-06-13T22:15:57.464Z,3.20
2018-06-13T22:18:26.325Z,2.63
2018-06-13T22:20:55.130Z,7.53
2018-06-13T22:23:23.908Z,4.97
2018-06-13T22:25:52.814Z,4.57
2018-06-13T22:28:21.630Z,3.20
2018-06-13T22:30:50.417Z,2.57
2018-06-13T22:33:19.180Z,2.33
2018-06-13T22:35:48.040Z,2.40
2018-06-13T22:38:16.939Z,2.00
2018-06-13T22:40:45.744Z,3.03
2018-06-13T22:43:14.576Z,3.50
2018-06-13T22:45:43.367Z,3.33
2018-06-13T22:48:12.222Z,3.17
2018-06-13T22:50:41.069Z,2.07
2018-06-13T22:53:09.924Z,2.53
2018-06-13T22:55:38.730Z,5.23
2018-06-13T22:58:07.535Z,1.83
2018-06-13T23:01:11.835Z,4.47
2018-06-13T23:03:40.673Z,3.07
2018-06-13T23:06:10.567Z,3.87
2018-06-13T23:08:39.834Z,3.00
2018-06-13T23:11:08.648Z,3.93
2018-06-13T23:13:37.477Z,8.70
2018-06-13T23:16:06.283Z,7.60
2018-06-13T23:18:35.085Z,5.70
2018-06-13T23:21:03.955Z,5.70
2018-06-13T23:23:32.848Z,4.23
2018-06-13T23:26:01.651Z,4.57
2018-06-13T23:28:30.435Z,4.37
2018-06-13T23:30:59.325Z,7.93
2018-06-13T23:33:28.156Z,6.47
2018-06-13T23:35:56.967Z,4.50
2018-06-13T23:38:25.733Z,5.27
2018-06-13T23:40:54.569Z,9.03
2018-06-13T23:43:23.544Z,5.77
2018-06-13T23:45:52.390Z,5.10
2018-06-13T23:48:21.147Z,8.83
2018-06-13T23:50:49.923Z,5.77
2018-06-13T23:53:18.796Z,8.10
2018-06-13T23:55:47.687Z,12.30
2018-06-13T23:58:16.569Z,9.87
